• Join FlightAware (Why Join?)
  • Login
  • US Flag 
01:37AM EDT


 

Airport Tracker/Info


-or-


 

Live Flight TrackerFlight Track Log ✈ UAL5832 ✈ 16-Apr-2013 ✈ KABE - KORD

Flight Track Log - Related Links

Times and Time Zones

All times are in EDT time to prevent confusion due to time zone crossing. See the UAL5832 flight status page for this flight to view local times or setup timezone preferences in your user account.

Time Position Orientation Groundspeed Altitude Reporting Facility
EDT Latitude Longitude Course Direction KTS MPH feet Rate Location/Type
05:32PM 40.5908 -75.8242 270° West 244 281 11,400  Level New York Center
05:34PM 40.5975 -75.9990 264° West  Level FlightAware Approximate
05:34PM 40.6019 -75.9757 276° West  Level FlightAware Approximate
05:35PM 40.5888 -76.1132 264° West  Level FlightAware Approximate
05:36PM 40.6167 -76.2355 270° West  Level FlightAware Approximate
05:37PM 40.6167 -76.3607 270° West  Level FlightAware Approximate
05:38PM 40.6167 -76.4859 270° West  Level FlightAware Approximate
05:39PM 40.6211 -76.6578 270° West 333 383 19,800  Level New York Center
05:41PM 40.6333 -76.8095 270° West  Level FlightAware Approximate
05:41PM 40.6467 -76.8064 270° West  Level Estimated
05:42PM 40.6334 -76.9347 270° West  Level FlightAware Approximate
05:42PM 40.6344 -77.0475 270° West 361 415 22,800  Level New York Center
05:43PM 40.6333 -77.0599 270° West  Level FlightAware Approximate
05:44PM 40.6334 -77.1852 270° West  Level FlightAware Approximate
05:44PM 40.6338 -77.2019 270° West  Level FlightAware Approximate
05:45PM 40.6333 -77.3104 270° West  Level FlightAware Approximate
05:46PM 40.6514 -77.5917 285° West 365 420 27,200  Level Cleveland Center
05:47PM 40.6525 -77.7231 271° West 365 420 28,300 1,020 Climbing Cleveland Center
05:48PM 40.7902 -77.6634 270° West  Level Estimated
05:48PM 40.6619 -77.8514 276° West 365 420 29,300  Level Cleveland Center
05:49PM 40.6794 -77.9792 280° West 365 420 30,400 1,080 Climbing Cleveland Center
05:50PM 40.6969 -78.1100 280° West 365 420 31,500 1,080 Climbing Cleveland Center
05:51PM 40.6853 -78.0759 285° West  Level FlightAware Approximate
05:51PM 40.7167 -78.2436 281° West 370 426 32,600  Level Cleveland Center
05:52PM 40.7095 -78.1972 285° West  Level FlightAware Approximate
05:52PM 40.7336 -78.3744 280° West 370 426 33,600  Level Cleveland Center
05:53PM 40.7508 -78.5083 280° West 370 426 34,700 1,020 Climbing Cleveland Center
05:54PM 40.7697 -78.6364 281° West 370 426 35,700 600 Climbing Cleveland Center
05:55PM 40.7867 -78.7706 280° West 370 426 36,000 120 Climbing Cleveland Center
05:56PM 40.8053 -78.9069 280° West 370 426 36,000  Level Cleveland Center
05:57PM 40.8261 -79.0464 281° West 375 432 36,000  Level Cleveland Center
05:58PM 40.8444 -79.1833 280° West 375 432 36,000  Level Cleveland Center
05:59PM 40.8608 -79.3231 279° West 380 437 36,000  Level Cleveland Center
06:00PM 40.8789 -79.4600 280° West 385 443 36,000  Level Cleveland Center
06:01PM 40.8967 -79.5969 280° West 385 443 36,000  Level Cleveland Center
06:02PM 40.9125 -79.7342 279° West 385 443 36,000  Level Cleveland Center
06:03PM 40.9300 -79.8714 280° West 385 443 36,000  Level Cleveland Center
06:04PM 40.9456 -80.0086 279° West 385 443 36,000  Level Cleveland Center
06:05PM 40.9628 -80.1431 280° West 385 443 36,000  Level Cleveland Center
06:06PM 40.9778 -80.2669 279° West 385 443 36,000  Level Cleveland Center
06:07PM 40.9947 -80.4017 280° West 385 443 36,000  Level Cleveland Center
06:08PM 41.0094 -80.5392 278° West 385 443 36,000  Level Cleveland Center
06:09PM 41.0261 -80.6711 280° West 385 443 36,000  Level Cleveland Center
06:10PM 41.0406 -80.8061 278° West 380 437 36,000  Level Cleveland Center
06:11PM 41.0528 -80.9356 277° West 369 425 36,000  Level Cleveland Center
06:12PM 41.0583 -81.0761 273° West 358 412 36,000  Level Cleveland Center
06:13PM 41.0681 -81.2083 276° West 358 412 36,000  Level Cleveland Center
06:14PM 41.0736 -81.3239 274° West 352 405 36,000  Level Cleveland Center
06:15PM 41.0811 -81.4508 275° West 352 405 36,000  Level Cleveland Center
06:16PM 41.0906 -81.5778 276° West 352 405 36,000  Level Cleveland Center
06:17PM 41.0975 -81.7156 274° West 352 405 36,000  Level Cleveland Center
06:18PM 41.1047 -81.8369 275° West 346 398 36,000  Level Cleveland Center
06:19PM 41.1117 -81.9556 274° West 331 381 36,000  Level Cleveland Center
06:20PM 41.1186 -82.0714 275° West 316 364 36,000  Level Cleveland Center
06:21PM 41.1253 -82.1847 275° West 316 364 36,000  Level Cleveland Center
06:22PM 41.1319 -82.3033 274° West 311 358 36,000  Level Cleveland Center
06:23PM 41.1383 -82.4194 274° West 311 358 36,000  Level Cleveland Center
06:24PM 41.1431 -82.5269 273° West 311 358 36,000  Level Cleveland Center
06:25PM 41.1492 -82.6486 274° West 324 373 36,000  Level Cleveland Center
06:26PM 41.1908 -82.7631 296° West 335 386 36,000  Level Cleveland Center
06:27PM 41.2428 -82.8781 301° West 357 411 36,000  Level Cleveland Center
06:28PM 41.2967 -82.9931 302° West 362 417 36,000  Level Cleveland Center
06:29PM 41.3419 -83.1167 296° West 375 432 36,000  Level Cleveland Center
06:30PM 41.3369 -83.2492 267° West 341 392 36,000  Level Cleveland Center
06:31PM 41.3325 -83.3431 266° West 334 384 36,000  Level Cleveland Center
06:32PM 41.3233 -83.4642 269° West 320 368 36,000  Level Cleveland Center
06:33PM 41.3299 -83.4862 269° West  Level FlightAware Approximate
06:33PM 41.3142 -83.5744 264° West 314 361 36,000  Level Cleveland Center
06:34PM 41.3069 -83.6875 265° West 309 356 35,300 -1,020 Descending Cleveland Center
06:35PM 41.2972 -83.8169 264° West 331 381 34,000 -420 Descending Cleveland Center
06:38PM 41.2769 -84.1233 265° West 368 423 34,000  Level Chicago Center
06:39PM 41.2639 -84.2878 264° West 373 429 34,000  Level Chicago Center
06:40PM 41.2581 -84.4250 267° West 373 429 34,000  Level Chicago Center
06:41PM 41.2619 -84.5606 272° West 369 425 34,000  Level Chicago Center
06:42PM 41.2650 -84.6942 272° West 364 419 34,000  Level Chicago Center
06:43PM 41.2669 -84.8278 271° West 362 417 34,000  Level Chicago Center
06:44PM 41.2689 -84.9614 271° West 362 417 34,000  Level Chicago Center
06:45PM 41.2708 -85.1017 271° West 372 428 34,000 -360 Level Chicago Center
06:46PM 41.2744 -85.2728 272° West 379 436 33,300 -1,320 Descending Chicago Center
06:47PM 41.2756 -85.4203 271° West 387 445 31,300 -2,040 Descending Chicago Center
06:48PM 41.2772 -85.5675 271° West 394 453 29,100 -2,280 Descending Chicago Center
06:49PM 41.2792 -85.7125 271° West 390 449 26,600 -2,040 Descending Chicago Center
06:50PM 41.2808 -85.8594 271° West 394 453 25,000 -1,020 Descending Chicago Center
06:51PM 41.3081 -86.0031 284° West 400 460 24,600 -720 Descending Chicago Center
06:52PM 41.3389 -86.1464 286° West 402 463 23,600 -1,020 Descending Chicago Center
06:53PM 41.3717 -86.2867 287° West 396 456 22,500 -960 Descending Chicago Center
06:54PM 41.4089 -86.4539 287° West 394 453 21,700 -1,560 Descending Chicago Center
06:55PM 41.4403 -86.5925 287° West 391 450 19,300 -2,220 Descending Chicago Center
06:56PM 41.4675 -86.7208 286° West 362 417 17,200 -2,400 Descending Chicago Center
06:57PM 41.4975 -86.8558 287° West 347 399 14,500 -2,400 Descending Chicago Center
06:58PM 41.5228 -86.9742 286° West 338 389 12,400 -1,260 Descending Chicago Center
06:59PM 41.5489 -87.0906 287° West 331 381 11,900 -240 Descending Chicago Center
07:00PM 41.5500 -87.1333 272° West 326 375 12,100 60 Climbing Chicago TRACON
07:01PM 41.5833 -87.2333 294° West 328 377 12,000 -480 Descending Chicago TRACON
07:02PM 41.6500 -87.3500 307° West 334 384 11,200 -960 Descending Chicago TRACON
07:02PM 41.6900 -87.4197 308° West 329 379 10,200 -720 Descending Chicago Center
07:04PM 41.7458 -87.5122 309° West 324 373 9,900 -540 Descending Chicago Center
07:05PM 41.7925 -87.5861 310° West 270 311 9,200 -900 Descending Chicago Center
07:06PM 41.8175 -87.6689 292° West 260 299 8,100 -1,020 Descending Chicago Center
07:07PM 41.8158 -87.7586 269° West 246 283 7,100 -600 Descending Chicago Center
07:08PM 41.8167 -87.8500 271° West 218 251 6,900 -600 Descending Chicago TRACON
07:09PM 41.7969 -87.9267 251° West 222 255 5,900 -1,140 Descending Chicago Center
07:10PM 41.7719 -88.0025 246° West 234 269 4,600 -1,140 Descending Chicago Center
07:11PM 41.8164 -88.0417 327° Northwest 222 255 3,600 -840 Descending Chicago Center
07:12PM 41.8636 -88.0078 28° Northeast 206 237 2,900 -720 Descending Chicago Center
07:13PM 41.9000 -87.9667 40° Northeast 150 173 2,300 -780 Descending Chicago TRACON
07:14PM 41.9167 -87.9333 56° Northeast 124 143 1,600 -780 Descending Chicago TRACON
07:15PM 41.9500 -87.9000 37° Northeast 126 145 900 -720 Descending Chicago TRACON
07:17PM 41.9667 -87.9000 180° South  Level FlightAware Approximate